Time;durP1;ratioP1;P1;durP2;ratioP2;P2;SDS_P1;SDS_P2;PMS_P1;PMS_P2;Temp;Humidity;BMP_temperature;BMP_pressure;BME280_temperature;BME280_humidity;BME280_pressure;Samples;Min_cycle;Max_cycle;Signal;HPM_P1;HPM_P2
2022/09/01 00:00:12;;;;;;;7.10;2.33;;;;;;;19.63;nan;101429.69;6231404;22;20420;-92
2022/09/01 00:02:41;;;;;;;8.90;2.43;;;;;;;19.61;nan;101422.72;6232431;22;20419;-93
2022/09/01 00:05:12;;;;;;;8.30;2.40;;;;;;;19.74;nan;101438.31;6256899;22;20441;-91
2022/09/01 00:07:54;;;;;;;7.00;2.47;;;;;;;19.62;nan;101428.03;6252884;22;20419;-92
2022/09/01 00:10:25;;;;;;;6.73;2.27;;;;;;;19.66;nan;101431.16;6256710;22;20487;-93
2022/09/01 00:13:06;;;;;;;9.33;3.07;;;;;;;19.68;nan;101423.44;6231244;22;20413;-90
2022/09/01 00:15:35;;;;;;;8.97;2.37;;;;;;;19.64;nan;101411.13;6232699;22;20878;-93
2022/09/01 00:18:03;;;;;;;9.47;2.67;;;;;;;19.75;nan;101421.44;6256373;22;20412;-91
2022/09/01 00:20:36;;;;;;;8.70;2.57;;;;;;;19.70;nan;101420.44;6256850;22;20398;-92
2022/09/01 00:23:04;;;;;;;7.47;2.30;;;;;;;19.74;nan;101428.06;6231659;22;20424;-93
2022/09/01 00:25:35;;;;;;;8.87;2.57;;;;;;;19.76;nan;101459.19;6231718;22;20429;-91
2022/09/01 00:28:05;;;;;;;7.67;2.03;;;;;;;19.73;nan;101431.91;6160638;23;20408;-92
2022/09/01 00:30:35;;;;;;;8.40;2.50;;;;;;;19.74;nan;101433.59;6112191;23;20978;-92
2022/09/01 00:33:12;;;;;;;11.70;2.70;;;;;;;19.62;nan;101405.00;6135710;23;20408;-92
2022/09/01 00:35:41;;;;;;;11.07;2.50;;;;;;;19.67;nan;101410.66;6160493;23;20408;-93
2022/09/01 00:38:11;;;;;;;13.30;2.57;;;;;;;19.60;nan;101407.16;6111467;23;20818;-93
2022/09/01 00:40:40;;;;;;;8.90;2.40;;;;;;;19.60;nan;101388.59;6159954;23;20508;-91
2022/09/01 00:43:13;;;;;;;8.87;2.83;;;;;;;19.72;nan;101413.56;6159812;23;20421;-91
2022/09/01 00:45:41;;;;;;;13.00;3.00;;;;;;;19.69;nan;101414.06;6145813;22;20445;-92
2022/09/01 00:48:13;;;;;;;7.73;2.40;;;;;;;19.67;nan;101411.50;6232745;22;20440;-92
2022/09/01 00:50:41;;;;;;;10.27;2.30;;;;;;;19.61;nan;101411.63;6255374;22;20437;-91
2022/09/01 00:53:14;;;;;;;6.73;2.40;;;;;;;19.64;nan;101411.13;6231722;22;20535;-91
2022/09/01 00:55:44;;;;;;;7.43;2.30;;;;;;;19.56;nan;101392.09;6256571;22;20420;-93
2022/09/01 00:58:22;;;;;;;8.77;2.83;;;;;;;19.60;nan;101393.31;6231412;22;20389;-93
2022/09/01 01:00:51;;;;;;;14.70;2.90;;;;;;;19.59;nan;101397.16;6230597;22;20462;-91
2022/09/01 01:03:22;;;;;;;17.57;3.40;;;;;;;19.52;nan;101388.09;6256390;22;20734;-91
2022/09/01 01:05:54;;;;;;;10.23;2.47;;;;;;;19.55;nan;101384.84;6232297;22;20523;-91
2022/09/01 01:08:32;;;;;;;12.83;2.10;;;;;;;19.48;nan;101378.50;6230622;22;20419;-92
2022/09/01 01:11:16;;;;;;;11.70;2.67;;;;;;;19.52;nan;101390.88;6234800;22;20737;-92
2022/09/01 01:13:51;;;;;;;8.90;2.67;;;;;;;19.60;nan;101396.06;6258515;22;20420;-92
2022/09/01 01:16:19;;;;;;;8.60;2.50;;;;;;;19.45;nan;101379.81;6231395;22;20488;-91
2022/09/01 01:19:03;;;;;;;11.07;3.00;;;;;;;19.61;nan;101390.28;6255607;22;20478;-91
2022/09/01 01:24:36;;;;;;;12.30;2.90;;;;;;;19.55;nan;101376.53;6287697;22;20468;-91
2022/09/01 01:27:07;;;;;;;7.47;2.10;;;;;;;19.48;nan;101373.81;6230849;22;20413;-91
2022/09/01 01:29:40;;;;;;;7.53;2.40;;;;;;;19.49;nan;101366.34;6230879;22;20944;-91
2022/09/01 01:32:11;;;;;;;9.30;2.27;;;;;;;19.48;nan;101361.88;6258985;22;20404;-91
2022/09/01 01:34:44;;;;;;;9.00;1.90;;;;;;;19.47;nan;101354.63;6256170;22;20413;-91
2022/09/01 01:37:14;;;;;;;5.80;1.87;;;;;;;19.45;nan;101351.25;6258018;22;20484;-92
2022/09/01 01:39:43;;;;;;;10.73;2.67;;;;;;;19.45;nan;101354.03;6255940;22;20484;-91
2022/09/01 01:42:15;;;;;;;10.63;3.23;;;;;;;19.54;nan;101358.19;6255973;22;20398;-94
2022/09/01 01:44:46;;;;;;;6.67;2.63;;;;;;;19.43;nan;101354.28;6231174;22;20409;-91
2022/09/01 01:47:19;;;;;;;9.43;2.63;;;;;;;19.45;nan;101359.56;6257518;22;20405;-91
2022/09/01 01:49:46;;;;;;;9.90;2.23;;;;;;;19.42;nan;101351.75;6231097;22;20515;-91
2022/09/01 01:52:19;;;;;;;9.87;2.80;;;;;;;19.43;nan;101365.38;6230328;22;20419;-91
2022/09/01 01:55:01;;;;;;;13.03;2.70;;;;;;;19.38;nan;101358.84;6262216;22;20407;-91
2022/09/01 01:57:34;;;;;;;11.40;2.47;;;;;;;19.36;nan;101359.09;6252630;22;20405;-91
2022/09/01 02:00:10;;;;;;;7.53;2.37;;;;;;;19.43;nan;101372.84;6255646;22;20476;-92
2022/09/01 02:02:51;;;;;;;10.67;2.80;;;;;;;19.37;nan;101358.00;6282759;22;20400;-91
2022/09/01 02:05:25;;;;;;;7.83;2.40;;;;;;;19.46;nan;101369.59;6257224;22;20445;-91
2022/09/01 02:08:00;;;;;;;12.70;2.63;;;;;;;19.39;nan;101360.53;6281102;22;20409;-92
2022/09/01 02:10:51;;;;;;;15.03;2.20;;;;;;;19.40;nan;101365.00;6256653;22;20890;-91
2022/09/01 02:13:29;;;;;;;11.43;2.67;;;;;;;19.41;nan;101377.78;6282727;22;20404;-93
2022/09/01 02:16:19;;;;;;;7.40;2.27;;;;;;;19.48;nan;101386.84;6261228;22;20400;-91
2022/09/01 02:18:47;;;;;;;7.10;2.30;;;;;;;19.39;nan;101369.72;6283035;22;20535;-91
2022/09/01 02:21:20;;;;;;;8.67;2.40;;;;;;;19.43;nan;101370.09;6233217;22;20480;-91
2022/09/01 02:24:16;;;;;;;7.30;2.27;;;;;;;19.41;nan;101358.38;6258271;22;20949;-92
2022/09/01 02:26:47;;;;;;;12.80;2.00;;;;;;;19.33;nan;101348.47;6258673;22;20452;-91
2022/09/01 02:29:21;;;;;;;11.93;2.63;;;;;;;19.35;nan;101351.00;6233412;22;20415;-91
2022/09/01 02:31:51;;;;;;;4.93;2.40;;;;;;;19.35;nan;101345.47;6258248;22;20539;-90
2022/09/01 02:34:19;;;;;;;7.00;2.43;;;;;;;19.36;nan;101352.69;6232131;22;20474;-92
2022/09/01 02:36:48;;;;;;;6.30;2.10;;;;;;;19.40;nan;101353.91;6232902;22;20780;-91
2022/09/01 02:39:32;;;;;;;8.70;2.60;;;;;;;19.42;nan;101341.50;6232687;22;20455;-91
2022/09/01 02:42:04;;;;;;;6.77;2.43;;;;;;;19.40;nan;101340.06;6233464;22;20469;-92
2022/09/01 02:44:43;;;;;;;6.43;2.37;;;;;;;19.43;nan;101342.38;6232262;22;20412;-93
2022/09/01 02:47:11;;;;;;;6.67;2.67;;;;;;;19.33;nan;101341.00;6283172;22;20436;-92
2022/09/01 02:49:39;;;;;;;6.47;2.40;;;;;;;19.40;nan;101346.44;6232404;22;20429;-92
2022/09/01 02:52:09;;;;;;;9.17;1.97;;;;;;;19.38;nan;101339.44;6232900;22;20476;-91
2022/09/01 02:54:48;;;;;;;10.20;3.10;;;;;;;19.31;nan;101322.91;6257679;22;20420;-91
2022/09/01 02:57:33;;;;;;;4.10;2.20;;;;;;;19.44;nan;101344.03;6284011;22;20512;-93
2022/09/01 03:00:19;;;;;;;7.60;2.57;;;;;;;19.36;nan;101320.28;6257790;22;20389;-92
2022/09/01 03:02:56;;;;;;;9.53;2.73;;;;;;;19.35;nan;101323.28;6259882;22;20416;-92
2022/09/01 03:05:28;;;;;;;12.53;2.10;;;;;;;19.37;nan;101321.13;6256828;22;20461;-91
2022/09/01 03:08:06;;;;;;;9.13;2.30;;;;;;;19.44;nan;101319.06;6232950;22;20466;-91
2022/09/01 03:10:42;;;;;;;5.40;2.20;;;;;;;19.36;nan;101306.41;6308671;22;20416;-91
2022/09/01 03:13:14;;;;;;;10.93;2.20;;;;;;;19.40;nan;101313.19;6232976;22;20992;-91
2022/09/01 03:15:49;;;;;;;8.10;2.30;;;;;;;19.29;nan;101306.50;6233134;22;20468;-92
2022/09/01 03:18:24;;;;;;;6.50;2.30;;;;;;;19.23;nan;101281.69;6232894;22;20416;-92
2022/09/01 03:20:55;;;;;;;5.00;2.20;;;;;;;19.35;nan;101301.94;6231824;22;20431;-92
2022/09/01 03:23:26;;;;;;;6.03;2.33;;;;;;;19.35;nan;101301.94;6256285;22;20410;-92
2022/09/01 03:25:56;;;;;;;10.63;3.47;;;;;;;19.35;nan;101298.34;6233430;22;20921;-93
2022/09/01 03:28:26;;;;;;;5.93;1.93;;;;;;;19.32;nan;101292.19;6256714;22;20416;-94
2022/09/01 03:30:56;;;;;;;5.10;2.10;;;;;;;19.36;nan;101300.03;6232318;22;20481;-93
2022/09/01 03:33:31;;;;;;;7.03;1.60;;;;;;;19.26;nan;101281.19;6232131;22;20473;-91
2022/09/01 03:36:17;;;;;;;4.23;1.80;;;;;;;19.27;nan;101283.72;6231613;22;20840;-93
2022/09/01 03:38:52;;;;;;;7.33;2.30;;;;;;;19.31;nan;101284.94;6257931;22;20413;-91
2022/09/01 03:41:24;;;;;;;6.03;2.20;;;;;;;19.41;nan;101289.91;6232766;22;20853;-92
2022/09/01 03:44:05;;;;;;;5.10;1.70;;;;;;;19.42;nan;101288.00;6258203;22;20409;-92
2022/09/01 03:46:34;;;;;;;6.43;2.00;;;;;;;19.35;nan;101276.16;6232951;22;20436;-92
2022/09/01 03:49:14;;;;;;;5.17;2.00;;;;;;;19.36;nan;101283.41;6232701;22;20748;-92
2022/09/01 03:51:44;;;;;;;5.67;2.47;;;;;;;19.42;nan;101291.63;6233633;22;20475;-91
2022/09/01 03:54:13;;;;;;;4.20;2.03;;;;;;;19.33;nan;101280.00;6136559;23;20483;-92
2022/09/01 03:56:42;;;;;;;5.03;2.33;;;;;;;19.36;nan;101287.00;6111487;23;20424;-91
2022/09/01 03:59:18;;;;;;;6.43;2.33;;;;;;;19.40;nan;101299.31;6137255;23;20415;-92
2022/09/01 04:01:55;;;;;;;3.67;1.70;;;;;;;19.50;nan;101301.53;6111208;23;20863;-93
2022/09/01 04:04:31;;;;;;;13.00;2.57;;;;;;;19.40;nan;101287.38;6160348;23;20403;-91
2022/09/01 04:07:06;;;;;;;4.73;2.17;;;;;;;19.40;nan;101282.69;6135512;23;20823;-93
2022/09/01 04:09:43;;;;;;;4.47;1.97;;;;;;;19.39;nan;101286.53;5988633;23;20500;-92
2022/09/01 04:12:14;;;;;;;3.63;1.87;;;;;;;19.55;nan;101315.53;6179298;22;20466;-92
2022/09/01 04:14:46;;;;;;;5.33;1.93;;;;;;;19.46;nan;101314.13;6233694;22;20404;-91
2022/09/01 04:20:08;;;;;;;4.47;2.00;;;;;;;19.56;nan;101325.53;6265158;22;20386;-92
2022/09/01 04:22:37;;;;;;;11.33;2.33;;;;;;;19.40;nan;101288.22;6257607;22;20396;-92
2022/09/01 04:25:22;;;;;;;4.80;2.17;;;;;;;19.48;nan;101296.19;6232049;22;20918;-91
2022/09/01 04:27:54;;;;;;;5.03;1.90;;;;;;;19.55;nan;101302.50;6232367;22;20470;-92
2022/09/01 04:30:31;;;;;;;3.50;2.10;;;;;;;19.46;nan;101300.28;6232237;22;21319;-91
2022/09/01 04:33:00;;;;;;;5.63;2.37;;;;;;;19.51;nan;101304.06;6165505;23;20495;-91
2022/09/01 04:35:31;;;;;;;4.00;1.80;;;;;;;19.59;nan;101319.50;6141087;23;20416;-92
2022/09/01 04:38:11;;;;;;;5.90;2.00;;;;;;;19.55;nan;101319.13;6168981;23;20452;-91
2022/09/01 04:40:39;;;;;;;3.70;1.83;;;;;;;19.55;nan;101312.75;6165175;23;20426;-92
2022/09/01 04:43:20;;;;;;;3.63;2.33;;;;;;;19.48;nan;101301.72;6140287;23;20423;-90
2022/09/01 04:45:49;;;;;;;4.33;1.93;;;;;;;19.50;nan;101294.03;6141354;23;20423;-91
2022/09/01 04:48:24;;;;;;;5.57;2.27;;;;;;;19.53;nan;101299.13;6141709;23;20404;-92
2022/09/01 04:50:52;;;;;;;5.80;2.13;;;;;;;19.59;nan;101302.88;6140567;23;20956;-91
2022/09/01 04:53:23;;;;;;;3.00;1.90;;;;;;;19.65;nan;101304.66;6165239;23;20840;-91
2022/09/01 04:55:55;;;;;;;2.70;1.60;;;;;;;19.63;nan;101293.81;6142883;23;20415;-91
2022/09/01 04:58:39;;;;;;;6.73;2.20;;;;;;;19.57;nan;101280.91;6166629;23;20416;-91
2022/09/01 05:01:19;;;;;;;4.70;1.93;;;;;;;19.68;nan;101298.63;6139598;23;20415;-91
2022/09/01 05:04:11;;;;;;;4.93;1.80;;;;;;;19.61;nan;101286.84;6165294;23;20423;-92
2022/09/01 05:06:48;;;;;;;5.47;2.00;;;;;;;19.65;nan;101290.78;6167899;23;20455;-92
2022/09/01 05:09:19;;;;;;;7.20;2.17;;;;;;;19.48;nan;101262.91;6214134;23;20404;-91
2022/09/01 05:12:09;;;;;;;2.20;1.73;;;;;;;19.48;nan;101262.91;6142392;23;20415;-92
2022/09/01 05:14:47;;;;;;;7.57;2.23;;;;;;;19.40;nan;101254.97;6089952;23;20649;-92
2022/09/01 05:17:16;;;;;;;6.20;2.07;;;;;;;19.39;nan;101260.75;6125743;23;20397;-91
2022/09/01 05:19:47;;;;;;;9.50;1.70;;;;;;;19.45;nan;101271.69;6136019;23;20389;-92
2022/09/01 05:22:31;;;;;;;4.43;2.10;;;;;;;19.49;nan;101274.84;6159337;23;20974;-91
2022/09/01 05:25:10;;;;;;;7.13;1.87;;;;;;;19.43;nan;101264.72;6111396;23;20823;-93
2022/09/01 05:27:48;;;;;;;2.83;1.73;;;;;;;19.42;nan;101263.03;6139112;23;20535;-93
2022/09/01 05:30:17;;;;;;;3.70;2.33;;;;;;;19.46;nan;101270.63;6136058;23;20803;-92
2022/09/01 05:32:53;;;;;;;4.30;1.90;;;;;;;19.56;nan;101286.72;6111243;23;20421;-93
2022/09/01 05:35:26;;;;;;;4.60;1.83;;;;;;;19.49;nan;101269.28;6111737;23;20404;-91
2022/09/01 05:37:59;;;;;;;3.20;2.17;;;;;;;19.49;nan;101274.84;6114899;23;20882;-91
2022/09/01 05:40:27;;;;;;;2.63;1.63;;;;;;;19.44;nan;101269.16;6226875;22;20475;-91
2022/09/01 05:42:58;;;;;;;4.83;2.17;;;;;;;19.49;nan;101274.84;6232134;22;20408;-91
2022/09/01 05:45:28;;;;;;;4.57;2.20;;;;;;;19.55;nan;101290.56;6233262;22;20405;-92
2022/09/01 05:48:13;;;;;;;4.90;1.83;;;;;;;19.57;nan;101300.34;6264757;22;20940;-92
2022/09/01 05:50:42;;;;;;;5.80;2.40;;;;;;;19.52;nan;101302.13;6232966;22;20911;-91
2022/09/01 05:53:16;;;;;;;7.00;2.17;;;;;;;19.49;nan;101297.88;6232020;22;20423;-92
2022/09/01 05:55:45;;;;;;;3.30;1.80;;;;;;;19.45;nan;101290.25;6234386;22;20408;-92
2022/09/01 05:58:16;;;;;;;3.23;1.90;;;;;;;19.46;nan;101291.94;6233082;22;20420;-91
2022/09/01 06:00:50;;;;;;;5.80;2.20;;;;;;;19.52;nan;101314.06;6258128;22;20404;-93
2022/09/01 06:03:31;;;;;;;5.77;2.20;;;;;;;19.52;nan;101325.16;6258421;22;20416;-93
2022/09/01 06:06:08;;;;;;;3.90;2.03;;;;;;;19.48;nan;101320.28;6260520;22;20443;-92
2022/09/01 06:09:09;;;;;;;4.73;2.10;;;;;;;19.41;nan;101328.72;6271611;22;20411;-92
2022/09/01 06:11:37;;;;;;;5.73;2.13;;;;;;;19.45;nan;101340.16;6257484;22;20458;-91
2022/09/01 06:14:07;;;;;;;5.17;2.50;;;;;;;19.52;nan;101350.13;6232927;22;20405;-91
2022/09/01 06:16:42;;;;;;;7.03;2.00;;;;;;;19.50;nan;101349.50;6257739;22;20417;-92
2022/09/01 06:19:15;;;;;;;4.20;2.27;;;;;;;19.46;nan;101336.31;6257264;22;20799;-91
2022/09/01 06:21:44;;;;;;;5.20;2.50;;;;;;;19.44;nan;101344.03;6281762;22;20491;-93
2022/09/01 06:24:13;;;;;;;4.87;2.17;;;;;;;19.49;nan;101358.88;6257791;22;20412;-93
2022/09/01 06:26:41;;;;;;;4.90;1.90;;;;;;;19.46;nan;101352.94;6257109;22;20761;-90
2022/09/01 06:29:14;;;;;;;3.10;2.17;;;;;;;19.40;nan;101337.28;6233031;22;20397;-92
2022/09/01 06:31:46;;;;;;;5.57;2.33;;;;;;;19.43;nan;101337.66;6173724;23;20415;-91
2022/09/01 06:34:16;;;;;;;4.43;2.27;;;;;;;19.47;nan;101343.56;6172220;23;20418;-91
2022/09/01 06:36:47;;;;;;;4.90;2.20;;;;;;;19.45;nan;101324.38;6078419;23;20415;-91
2022/09/01 06:39:21;;;;;;;7.87;1.93;;;;;;;19.48;nan;101323.06;6102843;23;20403;-93
2022/09/01 06:41:53;;;;;;;3.30;1.90;;;;;;;19.52;nan;101322.38;6103129;23;20881;-90
2022/09/01 06:44:21;;;;;;;6.17;2.13;;;;;;;19.64;nan;101327.94;5987785;23;20465;-91
2022/09/01 06:47:00;;;;;;;5.50;1.80;;;;;;;19.70;nan;101329.75;5993736;23;20497;-91
2022/09/01 06:49:31;;;;;;;2.97;2.03;;;;;;;19.72;nan;101330.38;6034325;23;20410;-91
2022/09/01 06:52:01;;;;;;;8.00;2.33;;;;;;;19.75;nan;101324.34;6021823;23;20431;-91
2022/09/01 06:54:52;;;;;;;2.70;1.90;;;;;;;19.84;nan;101328.44;6082192;23;20408;-91
2022/09/01 06:57:21;;;;;;;7.43;2.20;;;;;;;19.89;nan;101323.00;6112496;23;20421;-92
2022/09/01 07:00:16;;;;;;;4.60;1.77;;;;;;;19.97;nan;101333.75;6123416;23;20879;-91
2022/09/01 07:02:46;;;;;;;3.60;2.20;;;;;;;19.98;nan;101329.06;6168112;22;20413;-93
2022/09/01 07:05:20;;;;;;;6.63;2.30;;;;;;;20.05;nan;101326.13;6202708;22;20964;-91
2022/09/01 07:08:09;;;;;;;6.77;2.00;;;;;;;20.09;nan;101328.19;6215932;22;20442;-91
2022/09/01 07:10:49;;;;;;;5.50;2.20;;;;;;;20.26;nan;101331.06;6201875;22;20739;-91
2022/09/01 07:13:56;;;;;;;5.43;2.40;;;;;;;20.37;nan;101337.75;6235138;22;20728;-92
2022/09/01 07:17:01;;;;;;;3.90;2.37;;;;;;;20.42;nan;101347.00;6233558;22;20406;-92
2022/09/01 07:19:56;;;;;;;5.23;2.50;;;;;;;20.39;nan;101335.56;6234588;22;20880;-92
2022/09/01 07:22:24;;;;;;;5.57;2.33;;;;;;;20.42;nan;101327.56;6201690;22;20409;-92
2022/09/01 07:25:33;;;;;;;5.93;2.50;;;;;;;20.60;nan;101349.63;6213235;22;20402;-92
2022/09/01 07:28:41;;;;;;;4.10;1.80;;;;;;;20.58;nan;101335.16;6235597;22;20524;-91
2022/09/01 07:31:22;;;;;;;5.00;2.30;;;;;;;20.73;nan;101345.75;6224944;22;20406;-89
2022/09/01 07:34:16;;;;;;;4.03;2.30;;;;;;;20.75;nan;101332.44;6254101;22;20403;-89
2022/09/01 07:37:04;;;;;;;9.77;2.10;;;;;;;20.92;nan;101343.63;6233156;22;20398;-89
2022/09/01 07:39:53;;;;;;;4.03;1.90;;;;;;;20.94;nan;101350.63;6234272;22;20405;-88
2022/09/01 07:42:25;;;;;;;3.20;1.90;;;;;;;20.91;nan;101345.56;6224899;22;20417;-89
2022/09/01 07:45:14;;;;;;;4.20;2.10;;;;;;;21.00;nan;101349.59;6252468;22;20401;-89
2022/09/01 07:48:02;;;;;;;8.40;2.50;;;;;;;21.10;nan;101360.09;6209966;22;20445;-89
2022/09/01 07:50:34;;;;;;;4.90;1.90;;;;;;;21.13;nan;101350.41;6263393;22;20429;-90
2022/09/01 07:53:24;;;;;;;5.97;2.03;;;;;;;21.16;nan;101345.22;6265147;22;20398;-89
2022/09/01 07:55:53;;;;;;;7.93;2.57;;;;;;;21.19;nan;101352.19;6230638;22;20420;-90
2022/09/01 07:58:23;;;;;;;5.00;2.33;;;;;;;21.20;nan;101343.63;6231107;22;20491;-89
2022/09/01 08:00:52;;;;;;;5.10;1.70;;;;;;;21.28;nan;101347.94;6255779;22;20479;-89
2022/09/01 08:03:21;;;;;;;5.53;1.80;;;;;;;21.33;nan;101343.31;6255598;22;20492;-89
2022/09/01 08:05:52;;;;;;;3.97;1.70;;;;;;;21.33;nan;101332.22;6255978;22;20405;-89
2022/09/01 08:08:21;;;;;;;6.00;2.10;;;;;;;21.45;nan;101332.13;6231994;22;20440;-89
2022/09/01 08:10:55;;;;;;;9.60;2.00;;;;;;;21.54;nan;101333.41;6258231;22;20404;-89
2022/09/01 08:13:38;;;;;;;3.30;2.07;;;;;;;21.52;nan;101327.25;6236021;22;20883;-88
2022/09/01 08:16:08;;;;;;;4.33;1.60;;;;;;;21.51;nan;101327.50;6282067;22;21017;-88
2022/09/01 08:18:43;;;;;;;3.63;1.60;;;;;;;21.59;nan;101307.59;6233705;22;20400;-89
2022/09/01 08:21:16;;;;;;;6.07;2.30;;;;;;;21.59;nan;101319.56;6257061;22;20404;-89
2022/09/01 08:23:52;;;;;;;5.43;2.00;;;;;;;21.60;nan;101317.63;6232280;22;20413;-89
2022/09/01 08:26:22;;;;;;;18.03;2.57;;;;;;;21.69;nan;101324.47;6254549;22;20484;-89
2022/09/01 08:28:54;;;;;;;5.30;1.47;;;;;;;21.72;nan;101329.53;6281028;22;20726;-89
2022/09/01 08:31:22;;;;;;;5.63;1.50;;;;;;;21.83;nan;101342.50;6280598;22;20409;-89
2022/09/01 08:33:59;;;;;;;15.13;1.87;;;;;;;21.86;nan;101342.00;6259803;22;20479;-89
2022/09/01 08:36:29;;;;;;;3.90;1.83;;;;;;;21.93;nan;101358.53;6230280;22;20488;-88
2022/09/01 08:38:58;;;;;;;7.17;1.20;;;;;;;22.01;nan;101361.75;6280162;22;20546;-89
2022/09/01 08:41:43;;;;;;;4.17;1.37;;;;;;;22.16;nan;101369.47;6257012;22;20554;-93
2022/09/01 08:44:21;;;;;;;7.97;1.60;;;;;;;22.24;nan;101371.00;6255339;22;20401;-90
2022/09/01 08:46:49;;;;;;;2.33;1.87;;;;;;;22.26;nan;101369.66;6207287;22;20499;-89
2022/09/01 08:49:25;;;;;;;3.07;1.57;;;;;;;22.47;nan;101393.06;6255489;22;20416;-89
2022/09/01 08:52:15;;;;;;;3.13;1.57;;;;;;;22.49;nan;101390.88;6254957;22;20503;-86
2022/09/01 08:55:05;;;;;;;2.77;1.47;;;;;;;22.58;nan;101399.63;6284191;22;20400;-89
2022/09/01 08:57:35;;;;;;;7.00;1.97;;;;;;;22.73;nan;101395.09;6258796;22;20582;-88
2022/09/01 09:00:09;;;;;;;5.57;1.73;;;;;;;22.82;nan;101397.47;6255307;22;21141;-88
2022/09/01 09:02:39;;;;;;;2.03;1.37;;;;;;;22.89;nan;101385.03;6255332;22;20416;-88
